KHQG

Hugoton Municipal Airport

Hugoton, Kansas, USA
METAR KHQG 140415Z AUTO 25005KT 10SM CLR M04/M06 A3043 RMK AO2 T10441065
Observed Flight Rules
Nov-14 @ 04:15 UTC (33 minutes ago) Visual Flight Rules
Wind Visibility Clouds
250° at 5 knots 10 miles
  • Clear skies
Temperatures Readings
Current -4°C / 25°F
Dewpoint -7°C / 19°F
Humidity 80%
Altimeter 30.43" Hg
Pressure 1030 hPa
Elevation 956
METAR KHQG 140415Z AUTO 25005KT 10SM CLR M04/M06 A3043 RMK AO2 T10441065
Observed Flight Rules
Nov-14 @ 04:15 UTC
(33 minutes ago)
VFR
Wind Visibility
250° at 5 knots 10 miles
Clouds
  • Clear skies
Temperature Dewpoint
-4°C / 25°F -7°C / 19°F
Humidity Altimeter Pressure
80% 30.43" Hg 1030 hPa